Edisongracht — PDUJ — position and weather

sailwx.info

Track history (hours):
 
Tides and Currents Weather Stations Pressure Air Temp Water Temp Dewpoint Dewpoint Depression Visibility Wind Speed Wind Dir Waves Ship Positions

Edisongracht

Last reported at 2014-Dec-17 02:29 UTC. Time now 2014-Dec-20 10:28 UTC.
Position N 55°14' E 015°44'.

Length 136 m; beam 19 m; draft 9 m.

Type: Cargo ship. MMSI: 244262000.

Date/timePositionNaut miles runAvg speedWind from/ knotsBaromVisibWave heightAir tempDewpointWater temp
2014-Dec-17 02:29N 55°14' E 015°44'1415.2
2014-Dec-17 01:33N 55°02' E 015°31'1614.2
2014-Dec-17 00:27N 54°49' E 015°16'3812.2
2014-Dec-16 21:20N 54°17' E 014°40'911.3
2014-Dec-16 20:33N 54°10' E 014°31'8 8.1
2014-Dec-16 19:33N 54°03' E 014°23'9 9.1
2014-Dec-16 18:33N 53°55' E 014°17'7 6.4
2014-Dec-16 17:31N 53°49' E 014°20'9 8.9
2014-Dec-16 16:33N 53°42' E 014°29'9 8.8
2014-Dec-16 15:33N 53°34' E 014°36'8 7.9
2014-Dec-16 14:33N 53°26' E 014°35'0 0.2
2014-Dec-16 13:33N 53°27' E 014°35'0 0.0
2014-Dec-16 12:33N 53°27' E 014°35'0 0.0
2014-Dec-16 11:33N 53°27' E 014°35'0 0.0
2014-Dec-16 10:33N 53°27' E 014°35'0 0.3
2014-Dec-16 09:33N 53°27' E 014°35'0 0.1
2014-Dec-16 08:33N 53°27' E 014°35'0 0.0
2014-Dec-16 07:33N 53°27' E 014°35'0 0.0
2014-Dec-16 06:31N 53°27' E 014°35'0 0.0
2014-Dec-16 05:25N 53°27' E 014°35'0 0.0
2014-Dec-16 04:22N 53°27' E 014°35'0 0.0
2014-Dec-16 03:31N 53°27' E 014°35'0 0.0
2014-Dec-16 02:31N 53°27' E 014°35'0 0.0
2014-Dec-16 01:07N 53°27' E 014°35'0 0.0
2014-Dec-16 00:16N 53°27' E 014°35'0 0.0
2014-Dec-15 23:19N 53°27' E 014°35'0 0.0
2014-Dec-15 22:31N 53°27' E 014°35'0 0.0
2014-Dec-15 21:31N 53°27' E 014°35'0 0.0
2014-Dec-15 20:31N 53°27' E 014°35'0 0.0
2014-Dec-15 19:31N 53°27' E 014°35'0 0.0
2014-Dec-15 18:31N 53°27' E 014°35'0 0.0
2014-Dec-15 17:33N 53°27' E 014°35'0 0.0
2014-Dec-15 16:33N 53°27' E 014°35'0 0.0
2014-Dec-15 15:33N 53°27' E 014°35'0 0.0
2014-Dec-15 14:33N 53°27' E 014°35'0 0.0
2014-Dec-15 13:33N 53°27' E 014°35'0 0.0
2014-Dec-15 12:33N 53°27' E 014°35'0 0.0
2014-Dec-15 11:33N 53°27' E 014°35'0 0.0
2014-Dec-15 10:33N 53°27' E 014°35'0 0.0
2014-Dec-15 09:33N 53°27' E 014°35'0 0.0
2014-Dec-15 08:33N 53°27' E 014°35'0 0.0
2014-Dec-15 07:33N 53°27' E 014°35'0 0.0
2014-Dec-15 06:33N 53°27' E 014°35'0 0.0
2014-Dec-15 05:33N 53°27' E 014°35'0 0.0
2014-Dec-15 04:33N 53°27' E 014°35'0 0.0
2014-Dec-15 03:33N 53°27' E 014°35'0 0.0
2014-Dec-15 02:33N 53°27' E 014°35'0 0.0
2014-Dec-15 01:33N 53°27' E 014°35'0 0.0
2014-Dec-15 00:33N 53°27' E 014°35'0 0.0
2014-Dec-14 23:33N 53°27' E 014°35'0 0.0
2014-Dec-14 22:33N 53°27' E 014°35'0 0.0
2014-Dec-14 21:33N 53°27' E 014°35'0 0.0
2014-Dec-14 20:33N 53°27' E 014°35'0 0.0
2014-Dec-14 19:33N 53°27' E 014°35'0 0.0
2014-Dec-14 18:33N 53°27' E 014°35'0 0.0
2014-Dec-14 17:33N 53°27' E 014°35'0 0.0
2014-Dec-14 16:33N 53°27' E 014°35'0 0.0
2014-Dec-14 15:32N 53°27' E 014°35'0 0.0
2014-Dec-14 14:32N 53°27' E 014°35'0 0.0
2014-Dec-14 13:32N 53°27' E 014°35'0 0.0
2014-Dec-14 12:32N 53°27' E 014°35'0 0.0
2014-Dec-14 11:32N 53°27' E 014°35'0 0.0
2014-Dec-14 10:32N 53°27' E 014°35'0 0.0
2014-Dec-14 09:32N 53°27' E 014°35'0 0.0
2014-Dec-14 08:32N 53°27' E 014°35'0 0.0
2014-Dec-14 07:32N 53°27' E 014°35'0 0.0
2014-Dec-14 06:32N 53°27' E 014°35'0 0.0
2014-Dec-14 05:32N 53°27' E 014°35'0 0.0
2014-Dec-14 04:32N 53°27' E 014°35'0 0.0
2014-Dec-14 03:32N 53°27' E 014°35'0 0.0
2014-Dec-14 02:32N 53°27' E 014°35'0 0.0
2014-Dec-14 01:32N 53°27' E 014°35'0 0.0
2014-Dec-14 00:32N 53°27' E 014°35'0 0.0
2014-Dec-13 23:32N 53°27' E 014°35'0 0.0
2014-Dec-13 22:32N 53°27' E 014°35'0 0.0
2014-Dec-13 21:32N 53°27' E 014°35'0 0.0
2014-Dec-13 20:32N 53°27' E 014°35'0 0.0
2014-Dec-13 19:32N 53°27' E 014°35'0 0.0
2014-Dec-13 18:32N 53°27' E 014°35'0 0.0
2014-Dec-13 17:32N 53°27' E 014°35'0 0.0
2014-Dec-13 16:32N 53°27' E 014°35'0 0.0
2014-Dec-13 15:32N 53°27' E 014°35'0 0.0
2014-Dec-13 14:31N 53°27' E 014°35'0 0.0
2014-Dec-13 13:31N 53°27' E 014°35'0 0.0
2014-Dec-13 12:31N 53°27' E 014°35'0 0.0
2014-Dec-13 11:31N 53°27' E 014°35'0 0.0
2014-Dec-13 10:31N 53°27' E 014°35'0 0.0
2014-Dec-13 09:31N 53°27' E 014°35'0 0.0
2014-Dec-13 08:31N 53°27' E 014°35'0 0.0
2014-Dec-13 07:31N 53°27' E 014°35'0 0.0
2014-Dec-13 06:31N 53°27' E 014°35'0 0.0
2014-Dec-13 05:31N 53°27' E 014°35'0 0.0
2014-Dec-13 04:31N 53°27' E 014°35'0 0.0
2014-Dec-13 03:31N 53°27' E 014°35'0 0.0
2014-Dec-13 02:31N 53°27' E 014°35'0 0.0
2014-Dec-13 01:31N 53°27' E 014°35'0 0.0
2014-Dec-13 00:31N 53°27' E 014°35'0 0.0
2014-Dec-12 23:31N 53°27' E 014°35'0 0.0
2014-Dec-12 22:31N 53°27' E 014°35'0 0.0
2014-Dec-12 21:31N 53°27' E 014°35'0 0.0
2014-Dec-12 20:31N 53°27' E 014°35'0 0.0
2014-Dec-12 19:31N 53°27' E 014°35'0 0.0
2014-Dec-12 18:31N 53°27' E 014°35'0 0.0
2014-Dec-12 17:31N 53°27' E 014°35'0 0.0
2014-Dec-12 16:31N 53°27' E 014°35'0 0.0
2014-Dec-12 15:31N 53°27' E 014°35'0 0.0
2014-Dec-12 14:34N 53°27' E 014°35'0 0.0
2014-Dec-12 13:33N 53°27' E 014°35'0 0.0
2014-Dec-12 12:33N 53°27' E 014°35'0 0.0
2014-Dec-12 11:33N 53°27' E 014°35'0 0.0
2014-Dec-12 10:33N 53°27' E 014°35'0 0.0
2014-Dec-12 09:33N 53°27' E 014°35'0 0.0
2014-Dec-12 08:33N 53°27' E 014°35'0 0.0
2014-Dec-12 07:33N 53°27' E 014°35'0 0.0
2014-Dec-12 06:33N 53°27' E 014°35'0 0.0
2014-Dec-12 05:33N 53°27' E 014°35'0 0.0
2014-Dec-12 04:33N 53°27' E 014°35'0 0.0
2014-Dec-12 03:33N 53°27' E 014°35'0 0.0
2014-Dec-12 02:33N 53°27' E 014°35'0 0.0
2014-Dec-12 01:33N 53°27' E 014°35'0 0.0
2014-Dec-12 00:33N 53°27' E 014°35'0 0.0
2014-Dec-11 23:33N 53°27' E 014°35'0 0.0
2014-Dec-11 22:33N 53°27' E 014°35'0 0.0
2014-Dec-11 21:33N 53°27' E 014°35'0 0.0
2014-Dec-11 20:33N 53°27' E 014°35'0 0.0
2014-Dec-11 19:33N 53°27' E 014°35'0 0.0
2014-Dec-11 18:33N 53°27' E 014°35'0 0.0
2014-Dec-11 17:33N 53°27' E 014°35'0 0.0
2014-Dec-11 16:33N 53°27' E 014°35'0 0.0
2014-Dec-11 15:33N 53°27' E 014°35'0 0.0
2014-Dec-11 14:33N 53°27' E 014°35'0 0.0
2014-Dec-11 13:33N 53°27' E 014°35'0 0.0
2014-Dec-11 12:33N 53°27' E 014°35'0 0.0
2014-Dec-11 11:32N 53°27' E 014°35'0 0.0
2014-Dec-11 10:32N 53°27' E 014°35'0 0.0
2014-Dec-11 09:32N 53°27' E 014°35'0 0.0
2014-Dec-11 08:32N 53°27' E 014°35'0 0.0
2014-Dec-11 07:32N 53°27' E 014°35'0 0.0
2014-Dec-11 06:32N 53°27' E 014°35'0 0.0
2014-Dec-11 05:32N 53°27' E 014°35'0 0.0
2014-Dec-11 04:32N 53°27' E 014°35'0 0.0
2014-Dec-11 03:32N 53°27' E 014°35'0 0.0
2014-Dec-11 02:32N 53°27' E 014°35'0 0.0
2014-Dec-11 01:32N 53°27' E 014°35'0 0.0
2014-Dec-11 00:32N 53°27' E 014°35'0 0.0
2014-Dec-10 23:32N 53°27' E 014°35'0 0.0
2014-Dec-10 22:32N 53°27' E 014°35'0 0.0
2014-Dec-10 21:32N 53°27' E 014°35'0 0.0
2014-Dec-10 20:32N 53°27' E 014°35'0 0.0
2014-Dec-10 19:32N 53°27' E 014°35'0 0.0
2014-Dec-10 18:32N 53°27' E 014°35'0 0.0
2014-Dec-10 17:32N 53°27' E 014°35'0 0.0
2014-Dec-10 16:32N 53°27' E 014°35'0 0.0
2014-Dec-10 15:32N 53°27' E 014°35'0 0.0
2014-Dec-10 14:32N 53°27' E 014°35'0 0.0
2014-Dec-10 13:32N 53°27' E 014°35'0 0.0
2014-Dec-10 12:32N 53°27' E 014°35'0 0.0
2014-Dec-10 11:32N 53°27' E 014°35'0 0.0
2014-Dec-10 10:31N 53°27' E 014°35'0 0.0
2014-Dec-10 09:28N 53°27' E 014°35'0 0.0
2014-Dec-10 08:31N 53°27' E 014°35'0 0.0
2014-Dec-10 07:31N 53°27' E 014°35'0 0.0
2014-Dec-10 06:31N 53°27' E 014°35'0 0.0
2014-Dec-10 05:31N 53°27' E 014°35'0 0.0
2014-Dec-10 04:31N 53°27' E 014°35'0 0.0
2014-Dec-10 03:31N 53°27' E 014°35'0 0.0
2014-Dec-10 02:31N 53°27' E 014°35'0 0.0
2014-Dec-10 01:31N 53°27' E 014°35'0 0.0
2014-Dec-10 00:31N 53°27' E 014°35'0 0.0
2014-Dec-09 23:31N 53°27' E 014°35'0 0.0
2014-Dec-09 22:31N 53°27' E 014°35'0 0.0
2014-Dec-09 21:31N 53°27' E 014°35'0 0.0
2014-Dec-09 20:31N 53°27' E 014°35'0 0.0
2014-Dec-09 19:31N 53°27' E 014°35'0 0.0
2014-Dec-09 18:31N 53°27' E 014°35'0 0.0
2014-Dec-09 17:31N 53°27' E 014°35'0 0.0
2014-Dec-09 16:31N 53°27' E 014°35'0 0.0
2014-Dec-09 15:31N 53°27' E 014°35'0 0.0
2014-Dec-09 14:31N 53°27' E 014°35'0 0.0
2014-Dec-09 13:31N 53°27' E 014°35'0 0.0
2014-Dec-09 12:31N 53°27' E 014°35'0 0.0
2014-Dec-09 11:31N 53°27' E 014°35'0 0.0
2014-Dec-09 10:31N 53°27' E 014°35'0 0.0
2014-Dec-09 09:34N 53°27' E 014°35'0 0.0
2014-Dec-09 08:33N 53°27' E 014°35'0 0.0
2014-Dec-09 07:33N 53°27' E 014°35'0 0.0
2014-Dec-09 06:33N 53°27' E 014°35'0 0.0
2014-Dec-09 05:33N 53°27' E 014°35'0 0.0
2014-Dec-09 04:33N 53°27' E 014°35'0 0.0
2014-Dec-09 03:33N 53°27' E 014°35'0 0.0
2014-Dec-09 02:33N 53°27' E 014°35'0 0.0
2014-Dec-09 01:33N 53°27' E 014°35'0 0.0
2014-Dec-09 00:33N 53°27' E 014°35'0 0.0
2014-Dec-08 23:33N 53°27' E 014°35'0 0.0
2014-Dec-08 22:33N 53°27' E 014°35'0 0.0
2014-Dec-08 21:33N 53°27' E 014°35'0 0.0
2014-Dec-08 20:33N 53°27' E 014°35'0 0.0
2014-Dec-08 19:33N 53°27' E 014°35'0 0.0
2014-Dec-08 18:33N 53°27' E 014°35'0 0.0
2014-Dec-08 17:33N 53°27' E 014°35'0 0.0
2014-Dec-08 16:33N 53°27' E 014°35'0 0.0
2014-Dec-08 15:33N 53°27' E 014°35'0 0.0
2014-Dec-08 14:33N 53°27' E 014°35'0 0.0
2014-Dec-08 13:33N 53°27' E 014°35'0 0.0
2014-Dec-08 12:33N 53°27' E 014°35'0 0.0
2014-Dec-08 11:33N 53°27' E 014°35'0 0.0
2014-Dec-08 10:31N 53°27' E 014°35'0 0.0
2014-Dec-08 09:31N 53°27' E 014°35'0 0.0
2014-Dec-08 08:33N 53°27' E 014°35'0 0.0
2014-Dec-08 07:33N 53°27' E 014°35'0 0.0
2014-Dec-08 06:33N 53°27' E 014°35'0 0.0
2014-Dec-08 05:33N 53°27' E 014°35'0 0.0
2014-Dec-08 04:33N 53°27' E 014°35'0 0.0
2014-Dec-08 03:33N 53°27' E 014°35'0 0.0
2014-Dec-08 02:33N 53°27' E 014°35'0 0.0
2014-Dec-08 01:33N 53°27' E 014°35'0 0.0
2014-Dec-08 00:30N 53°27' E 014°35'0 0.0
2014-Dec-07 23:33N 53°27' E 014°35'0 0.0
2014-Dec-07 22:33N 53°27' E 014°35'0 0.0
2014-Dec-07 21:33N 53°27' E 014°35'0 0.0
2014-Dec-07 20:33N 53°27' E 014°35'0 0.0
2014-Dec-07 19:33N 53°27' E 014°35'0 0.0
2014-Dec-07 18:33N 53°27' E 014°35'0 0.0
2014-Dec-07 17:33N 53°27' E 014°35'0 0.0
2014-Dec-07 16:33N 53°27' E 014°35'0 0.0
2014-Dec-07 15:33N 53°27' E 014°35'0 0.0
2014-Dec-07 14:32N 53°27' E 014°35'0 0.0
2014-Dec-07 13:32N 53°27' E 014°35'0 0.0
2014-Dec-07 12:32N 53°27' E 014°35'0 0.1
2014-Dec-07 11:32N 53°27' E 014°35'0 0.1
2014-Dec-07 10:32N 53°27' E 014°35'0 0.0
2014-Dec-07 09:32N 53°27' E 014°35'0 0.0
2014-Dec-07 08:32N 53°27' E 014°35'0 0.0
2014-Dec-07 07:32N 53°27' E 014°35'0 0.0
2014-Dec-07 06:32N 53°27' E 014°35'0 0.0
2014-Dec-07 05:32N 53°27' E 014°35'0 0.0
2014-Dec-07 04:32N 53°27' E 014°35'0 0.0
2014-Dec-07 03:32N 53°27' E 014°35'0 0.4
2014-Dec-07 02:33N 53°27' E 014°36'  
Track history (hours):
 
Tides and Currents Weather Stations Pressure Air Temp Water Temp Dewpoint Dewpoint Depression Visibility Wind Speed Wind Dir Waves Ship Positions

Edisongracht

Last reported at 2014-Dec-17 02:29 UTC. Time now 2014-Dec-20 10:28 UTC.
Position N 55°14' E 015°44'.

Length 136 m; beam 19 m; draft 9 m.

Type: Cargo ship. MMSI: 244262000.

Date/timePositionNaut miles runAvg speedWind from/ knotsBaromVisibWave heightAir tempDewpointWater temp
2014-Dec-17 02:29N 55°14' E 015°44'1415.2
2014-Dec-17 01:33N 55°02' E 015°31'1614.2
2014-Dec-17 00:27N 54°49' E 015°16'3812.2
2014-Dec-16 21:20N 54°17' E 014°40'911.3
2014-Dec-16 20:33N 54°10' E 014°31'8 8.1
2014-Dec-16 19:33N 54°03' E 014°23'9 9.1
2014-Dec-16 18:33N 53°55' E 014°17'7 6.4
2014-Dec-16 17:31N 53°49' E 014°20'9 8.9
2014-Dec-16 16:33N 53°42' E 014°29'9 8.8
2014-Dec-16 15:33N 53°34' E 014°36'8 7.9
2014-Dec-16 14:33N 53°26' E 014°35'0 0.2
2014-Dec-16 13:33N 53°27' E 014°35'0 0.0
2014-Dec-16 12:33N 53°27' E 014°35'0 0.0
2014-Dec-16 11:33N 53°27' E 014°35'0 0.0
2014-Dec-16 10:33N 53°27' E 014°35'0 0.3
2014-Dec-16 09:33N 53°27' E 014°35'0 0.1
2014-Dec-16 08:33N 53°27' E 014°35'0 0.0
2014-Dec-16 07:33N 53°27' E 014°35'0 0.0
2014-Dec-16 06:31N 53°27' E 014°35'0 0.0
2014-Dec-16 05:25N 53°27' E 014°35'0 0.0
2014-Dec-16 04:22N 53°27' E 014°35'0 0.0
2014-Dec-16 03:31N 53°27' E 014°35'0 0.0
2014-Dec-16 02:31N 53°27' E 014°35'0 0.0
2014-Dec-16 01:07N 53°27' E 014°35'0 0.0
2014-Dec-16 00:16N 53°27' E 014°35'0 0.0
2014-Dec-15 23:19N 53°27' E 014°35'0 0.0
2014-Dec-15 22:31N 53°27' E 014°35'0 0.0
2014-Dec-15 21:31N 53°27' E 014°35'0 0.0
2014-Dec-15 20:31N 53°27' E 014°35'0 0.0
2014-Dec-15 19:31N 53°27' E 014°35'0 0.0
2014-Dec-15 18:31N 53°27' E 014°35'0 0.0
2014-Dec-15 17:33N 53°27' E 014°35'0 0.0
2014-Dec-15 16:33N 53°27' E 014°35'0 0.0
2014-Dec-15 15:33N 53°27' E 014°35'0 0.0
2014-Dec-15 14:33N 53°27' E 014°35'0 0.0
2014-Dec-15 13:33N 53°27' E 014°35'0 0.0
2014-Dec-15 12:33N 53°27' E 014°35'0 0.0
2014-Dec-15 11:33N 53°27' E 014°35'0 0.0
2014-Dec-15 10:33N 53°27' E 014°35'0 0.0
2014-Dec-15 09:33N 53°27' E 014°35'0 0.0
2014-Dec-15 08:33N 53°27' E 014°35'0 0.0
2014-Dec-15 07:33N 53°27' E 014°35'0 0.0
2014-Dec-15 06:33N 53°27' E 014°35'0 0.0
2014-Dec-15 05:33N 53°27' E 014°35'0 0.0
2014-Dec-15 04:33N 53°27' E 014°35'0 0.0
2014-Dec-15 03:33N 53°27' E 014°35'0 0.0
2014-Dec-15 02:33N 53°27' E 014°35'0 0.0
2014-Dec-15 01:33N 53°27' E 014°35'0 0.0
2014-Dec-15 00:33N 53°27' E 014°35'0 0.0
2014-Dec-14 23:33N 53°27' E 014°35'0 0.0
2014-Dec-14 22:33N 53°27' E 014°35'0 0.0
2014-Dec-14 21:33N 53°27' E 014°35'0 0.0
2014-Dec-14 20:33N 53°27' E 014°35'0 0.0
2014-Dec-14 19:33N 53°27' E 014°35'0 0.0
2014-Dec-14 18:33N 53°27' E 014°35'0 0.0
2014-Dec-14 17:33N 53°27' E 014°35'0 0.0
2014-Dec-14 16:33N 53°27' E 014°35'0 0.0
2014-Dec-14 15:32N 53°27' E 014°35'0 0.0
2014-Dec-14 14:32N 53°27' E 014°35'0 0.0
2014-Dec-14 13:32N 53°27' E 014°35'0 0.0
2014-Dec-14 12:32N 53°27' E 014°35'0 0.0
2014-Dec-14 11:32N 53°27' E 014°35'0 0.0
2014-Dec-14 10:32N 53°27' E 014°35'0 0.0
2014-Dec-14 09:32N 53°27' E 014°35'0 0.0
2014-Dec-14 08:32N 53°27' E 014°35'0 0.0
2014-Dec-14 07:32N 53°27' E 014°35'0 0.0
2014-Dec-14 06:32N 53°27' E 014°35'0 0.0
2014-Dec-14 05:32N 53°27' E 014°35'0 0.0
2014-Dec-14 04:32N 53°27' E 014°35'0 0.0
2014-Dec-14 03:32N 53°27' E 014°35'0 0.0
2014-Dec-14 02:32N 53°27' E 014°35'0 0.0
2014-Dec-14 01:32N 53°27' E 014°35'0 0.0
2014-Dec-14 00:32N 53°27' E 014°35'0 0.0
2014-Dec-13 23:32N 53°27' E 014°35'0 0.0
2014-Dec-13 22:32N 53°27' E 014°35'0 0.0
2014-Dec-13 21:32N 53°27' E 014°35'0 0.0
2014-Dec-13 20:32N 53°27' E 014°35'0 0.0
2014-Dec-13 19:32N 53°27' E 014°35'0 0.0
2014-Dec-13 18:32N 53°27' E 014°35'0 0.0
2014-Dec-13 17:32N 53°27' E 014°35'0 0.0
2014-Dec-13 16:32N 53°27' E 014°35'0 0.0
2014-Dec-13 15:32N 53°27' E 014°35'0 0.0
2014-Dec-13 14:31N 53°27' E 014°35'0 0.0
2014-Dec-13 13:31N 53°27' E 014°35'0 0.0
2014-Dec-13 12:31N 53°27' E 014°35'0 0.0
2014-Dec-13 11:31N 53°27' E 014°35'0 0.0
2014-Dec-13 10:31N 53°27' E 014°35'0 0.0
2014-Dec-13 09:31N 53°27' E 014°35'0 0.0
2014-Dec-13 08:31N 53°27' E 014°35'0 0.0
2014-Dec-13 07:31N 53°27' E 014°35'0 0.0
2014-Dec-13 06:31N 53°27' E 014°35'0 0.0
2014-Dec-13 05:31N 53°27' E 014°35'0 0.0
2014-Dec-13 04:31N 53°27' E 014°35'0 0.0
2014-Dec-13 03:31N 53°27' E 014°35'0 0.0
2014-Dec-13 02:31N 53°27' E 014°35'0 0.0
2014-Dec-13 01:31N 53°27' E 014°35'0 0.0
2014-Dec-13 00:31N 53°27' E 014°35'0 0.0
2014-Dec-12 23:31N 53°27' E 014°35'0 0.0
2014-Dec-12 22:31N 53°27' E 014°35'0 0.0
2014-Dec-12 21:31N 53°27' E 014°35'0 0.0
2014-Dec-12 20:31N 53°27' E 014°35'0 0.0
2014-Dec-12 19:31N 53°27' E 014°35'0 0.0
2014-Dec-12 18:31N 53°27' E 014°35'0 0.0
2014-Dec-12 17:31N 53°27' E 014°35'0 0.0
2014-Dec-12 16:31N 53°27' E 014°35'0 0.0
2014-Dec-12 15:31N 53°27' E 014°35'0 0.0
2014-Dec-12 14:34N 53°27' E 014°35'0 0.0
2014-Dec-12 13:33N 53°27' E 014°35'0 0.0
2014-Dec-12 12:33N 53°27' E 014°35'0 0.0
2014-Dec-12 11:33N 53°27' E 014°35'0 0.0
2014-Dec-12 10:33N 53°27' E 014°35'0 0.0
2014-Dec-12 09:33N 53°27' E 014°35'0 0.0
2014-Dec-12 08:33N 53°27' E 014°35'0 0.0
2014-Dec-12 07:33N 53°27' E 014°35'0 0.0
2014-Dec-12 06:33N 53°27' E 014°35'0 0.0
2014-Dec-12 05:33N 53°27' E 014°35'0 0.0
2014-Dec-12 04:33N 53°27' E 014°35'0 0.0
2014-Dec-12 03:33N 53°27' E 014°35'0 0.0
2014-Dec-12 02:33N 53°27' E 014°35'0 0.0
2014-Dec-12 01:33N 53°27' E 014°35'0 0.0
2014-Dec-12 00:33N 53°27' E 014°35'0 0.0
2014-Dec-11 23:33N 53°27' E 014°35'0 0.0
2014-Dec-11 22:33N 53°27' E 014°35'0 0.0
2014-Dec-11 21:33N 53°27' E 014°35'0 0.0
2014-Dec-11 20:33N 53°27' E 014°35'0 0.0
2014-Dec-11 19:33N 53°27' E 014°35'0 0.0
2014-Dec-11 18:33N 53°27' E 014°35'0 0.0
2014-Dec-11 17:33N 53°27' E 014°35'0 0.0
2014-Dec-11 16:33N 53°27' E 014°35'0 0.0
2014-Dec-11 15:33N 53°27' E 014°35'0 0.0
2014-Dec-11 14:33N 53°27' E 014°35'0 0.0
2014-Dec-11 13:33N 53°27' E 014°35'0 0.0
2014-Dec-11 12:33N 53°27' E 014°35'0 0.0
2014-Dec-11 11:32N 53°27' E 014°35'0 0.0
2014-Dec-11 10:32N 53°27' E 014°35'0 0.0
2014-Dec-11 09:32N 53°27' E 014°35'0 0.0
2014-Dec-11 08:32N 53°27' E 014°35'0 0.0
2014-Dec-11 07:32N 53°27' E 014°35'0 0.0
2014-Dec-11 06:32N 53°27' E 014°35'0 0.0
2014-Dec-11 05:32N 53°27' E 014°35'0 0.0
2014-Dec-11 04:32N 53°27' E 014°35'0 0.0
2014-Dec-11 03:32N 53°27' E 014°35'0 0.0
2014-Dec-11 02:32N 53°27' E 014°35'0 0.0
2014-Dec-11 01:32N 53°27' E 014°35'0 0.0
2014-Dec-11 00:32N 53°27' E 014°35'0 0.0
2014-Dec-10 23:32N 53°27' E 014°35'0 0.0
2014-Dec-10 22:32N 53°27' E 014°35'0 0.0
2014-Dec-10 21:32N 53°27' E 014°35'0 0.0
2014-Dec-10 20:32N 53°27' E 014°35'0 0.0
2014-Dec-10 19:32N 53°27' E 014°35'0 0.0
2014-Dec-10 18:32N 53°27' E 014°35'0 0.0
2014-Dec-10 17:32N 53°27' E 014°35'0 0.0
2014-Dec-10 16:32N 53°27' E 014°35'0 0.0
2014-Dec-10 15:32N 53°27' E 014°35'0 0.0
2014-Dec-10 14:32N 53°27' E 014°35'0 0.0
2014-Dec-10 13:32N 53°27' E 014°35'0 0.0
2014-Dec-10 12:32N 53°27' E 014°35'0 0.0
2014-Dec-10 11:32N 53°27' E 014°35'0 0.0
2014-Dec-10 10:31N 53°27' E 014°35'0 0.0
2014-Dec-10 09:28N 53°27' E 014°35'0 0.0
2014-Dec-10 08:31N 53°27' E 014°35'0 0.0
2014-Dec-10 07:31N 53°27' E 014°35'0 0.0
2014-Dec-10 06:31N 53°27' E 014°35'0 0.0
2014-Dec-10 05:31N 53°27' E 014°35'0 0.0
2014-Dec-10 04:31N 53°27' E 014°35'0 0.0
2014-Dec-10 03:31N 53°27' E 014°35'0 0.0
2014-Dec-10 02:31N 53°27' E 014°35'0 0.0
2014-Dec-10 01:31N 53°27' E 014°35'0 0.0
2014-Dec-10 00:31N 53°27' E 014°35'0 0.0
2014-Dec-09 23:31N 53°27' E 014°35'0 0.0
2014-Dec-09 22:31N 53°27' E 014°35'0 0.0
2014-Dec-09 21:31N 53°27' E 014°35'0 0.0
2014-Dec-09 20:31N 53°27' E 014°35'0 0.0
2014-Dec-09 19:31N 53°27' E 014°35'0 0.0
2014-Dec-09 18:31N 53°27' E 014°35'0 0.0
2014-Dec-09 17:31N 53°27' E 014°35'0 0.0
2014-Dec-09 16:31N 53°27' E 014°35'0 0.0
2014-Dec-09 15:31N 53°27' E 014°35'0 0.0
2014-Dec-09 14:31N 53°27' E 014°35'0 0.0
2014-Dec-09 13:31N 53°27' E 014°35'0 0.0
2014-Dec-09 12:31N 53°27' E 014°35'0 0.0
2014-Dec-09 11:31N 53°27' E 014°35'0 0.0
2014-Dec-09 10:31N 53°27' E 014°35'0 0.0
2014-Dec-09 09:34N 53°27' E 014°35'0 0.0
2014-Dec-09 08:33N 53°27' E 014°35'0 0.0
2014-Dec-09 07:33N 53°27' E 014°35'0 0.0
2014-Dec-09 06:33N 53°27' E 014°35'0 0.0
2014-Dec-09 05:33N 53°27' E 014°35'0 0.0
2014-Dec-09 04:33N 53°27' E 014°35'0 0.0
2014-Dec-09 03:33N 53°27' E 014°35'0 0.0
2014-Dec-09 02:33N 53°27' E 014°35'0 0.0
2014-Dec-09 01:33N 53°27' E 014°35'0 0.0
2014-Dec-09 00:33N 53°27' E 014°35'0 0.0
2014-Dec-08 23:33N 53°27' E 014°35'0 0.0
2014-Dec-08 22:33N 53°27' E 014°35'0 0.0
2014-Dec-08 21:33N 53°27' E 014°35'0 0.0
2014-Dec-08 20:33N 53°27' E 014°35'0 0.0
2014-Dec-08 19:33N 53°27' E 014°35'0 0.0
2014-Dec-08 18:33N 53°27' E 014°35'0 0.0
2014-Dec-08 17:33N 53°27' E 014°35'0 0.0
2014-Dec-08 16:33N 53°27' E 014°35'0 0.0
2014-Dec-08 15:33N 53°27' E 014°35'0 0.0
2014-Dec-08 14:33N 53°27' E 014°35'0 0.0
2014-Dec-08 13:33N 53°27' E 014°35'0 0.0
2014-Dec-08 12:33N 53°27' E 014°35'0 0.0
2014-Dec-08 11:33N 53°27' E 014°35'0 0.0
2014-Dec-08 10:31N 53°27' E 014°35'0 0.0
2014-Dec-08 09:31N 53°27' E 014°35'0 0.0
2014-Dec-08 08:33N 53°27' E 014°35'0 0.0
2014-Dec-08 07:33N 53°27' E 014°35'0 0.0
2014-Dec-08 06:33N 53°27' E 014°35'0 0.0
2014-Dec-08 05:33N 53°27' E 014°35'0 0.0
2014-Dec-08 04:33N 53°27' E 014°35'0 0.0
2014-Dec-08 03:33N 53°27' E 014°35'0 0.0
2014-Dec-08 02:33N 53°27' E 014°35'0 0.0
2014-Dec-08 01:33N 53°27' E 014°35'0 0.0
2014-Dec-08 00:30N 53°27' E 014°35'0 0.0
2014-Dec-07 23:33N 53°27' E 014°35'0 0.0
2014-Dec-07 22:33N 53°27' E 014°35'0 0.0
2014-Dec-07 21:33N 53°27' E 014°35'0 0.0
2014-Dec-07 20:33N 53°27' E 014°35'0 0.0
2014-Dec-07 19:33N 53°27' E 014°35'0 0.0
2014-Dec-07 18:33N 53°27' E 014°35'0 0.0
2014-Dec-07 17:33N 53°27' E 014°35'0 0.0
2014-Dec-07 16:33N 53°27' E 014°35'0 0.0
2014-Dec-07 15:33N 53°27' E 014°35'0 0.0
2014-Dec-07 14:32N 53°27' E 014°35'0 0.0
2014-Dec-07 13:32N 53°27' E 014°35'0 0.0
2014-Dec-07 12:32N 53°27' E 014°35'0 0.1
2014-Dec-07 11:32N 53°27' E 014°35'0 0.1
2014-Dec-07 10:32N 53°27' E 014°35'0 0.0
2014-Dec-07 09:32N 53°27' E 014°35'0 0.0
2014-Dec-07 08:32N 53°27' E 014°35'0 0.0
2014-Dec-07 07:32N 53°27' E 014°35'0 0.0
2014-Dec-07 06:32N 53°27' E 014°35'0 0.0
2014-Dec-07 05:32N 53°27' E 014°35'0 0.0
2014-Dec-07 04:32N 53°27' E 014°35'0 0.0
2014-Dec-07 03:32N 53°27' E 014°35'0 0.4
2014-Dec-07 02:33N 53°27' E 014°36'  

Dump ship's entire track history